createdAt,value
2019-05-05T00:00:51.953Z,4.96
2019-05-05T00:03:58.326Z,5.09
2019-05-05T00:07:04.440Z,5.14
2019-05-05T00:10:11.741Z,5.14
2019-05-05T00:13:25.184Z,5.18
2019-05-05T00:16:29.735Z,5.17
2019-05-05T00:19:35.873Z,5.28
2019-05-05T00:22:40.732Z,5.36
2019-05-05T00:25:45.176Z,5.31
2019-05-05T00:28:49.610Z,5.20
2019-05-05T00:31:54.694Z,5.34
2019-05-05T00:34:59.666Z,5.12
2019-05-05T00:38:05.065Z,5.09
2019-05-05T00:41:09.713Z,5.05
2019-05-05T00:44:15.366Z,5.13
2019-05-05T00:47:37.810Z,5.11
2019-05-05T00:50:42.249Z,5.04
2019-05-05T00:53:46.684Z,5.12
2019-05-05T00:56:51.415Z,5.00
2019-05-05T00:59:55.862Z,4.93
2019-05-05T01:03:00.581Z,4.99
2019-05-05T01:06:10.614Z,4.91
2019-05-05T01:09:16.826Z,4.80
2019-05-05T01:12:21.621Z,4.88
2019-05-05T01:15:26.346Z,5.02
2019-05-05T01:18:30.781Z,5.02
2019-05-05T01:21:35.219Z,5.10
2019-05-05T01:24:39.654Z,5.12
2019-05-05T01:27:45.355Z,5.13
2019-05-05T01:30:51.533Z,5.12
2019-05-05T01:34:04.846Z,5.11
2019-05-05T01:37:15.178Z,5.16
2019-05-05T01:40:22.162Z,5.16
2019-05-05T01:43:26.595Z,5.19
2019-05-05T01:46:31.371Z,5.18
2019-05-05T01:49:36.109Z,5.16
2019-05-05T01:52:40.553Z,5.29
2019-05-05T01:55:45.294Z,5.33
2019-05-05T01:58:50.683Z,5.22
2019-05-05T02:01:55.426Z,5.16
2019-05-05T02:05:00.175Z,5.12
2019-05-05T02:08:05.080Z,5.08
2019-05-05T02:11:10.036Z,4.85
2019-05-05T02:14:15.566Z,4.77
2019-05-05T02:17:20.527Z,4.81
2019-05-05T02:20:54.437Z,4.90
2019-05-05T02:23:59.174Z,4.90
2019-05-05T02:27:05.125Z,5.03
2019-05-05T02:30:17.741Z,5.05
2019-05-05T02:33:25.894Z,5.01
2019-05-05T02:36:29.866Z,5.03
2019-05-05T02:39:37.928Z,4.99
2019-05-05T02:42:41.922Z,5.08
2019-05-05T02:46:07.313Z,5.07
2019-05-05T02:49:14.931Z,5.11
2019-05-05T02:52:20.881Z,5.14
2019-05-05T02:55:25.589Z,5.12
2019-05-05T02:58:33.832Z,4.93
2019-05-05T03:01:39.918Z,4.89
2019-05-05T03:04:45.843Z,5.07
2019-05-05T03:07:50.369Z,5.06
2019-05-05T03:10:55.131Z,5.03
2019-05-05T03:14:01.618Z,5.02
2019-05-05T03:17:10.417Z,4.98
2019-05-05T03:20:14.921Z,5.03
2019-05-05T03:23:19.500Z,4.96
2019-05-05T03:26:24.882Z,5.01
2019-05-05T03:29:30.228Z,4.95
2019-05-05T03:32:36.002Z,4.94
2019-05-05T03:35:40.838Z,4.78
2019-05-05T03:38:46.522Z,4.54
2019-05-05T03:41:54.309Z,4.68
2019-05-05T03:45:00.873Z,4.89
2019-05-05T03:48:05.674Z,4.79
2019-05-05T03:51:18.755Z,4.80
2019-05-05T03:54:17.082Z,4.81
2019-05-05T03:57:24.523Z,4.71
2019-05-05T04:00:54.810Z,4.70
2019-05-05T04:04:17.129Z,4.72
2019-05-05T04:07:21.746Z,4.70
2019-05-05T04:10:26.619Z,4.79
2019-05-05T04:13:31.652Z,4.86
2019-05-05T04:16:40.389Z,4.70
2019-05-05T04:19:49.186Z,4.71
2019-05-05T04:22:54.254Z,4.82
2019-05-05T04:25:59.863Z,4.85
2019-05-05T04:29:05.505Z,4.81
2019-05-05T04:32:09.992Z,4.82
2019-05-05T04:35:14.635Z,4.93
2019-05-05T04:38:19.429Z,4.93
2019-05-05T04:41:24.570Z,5.04
2019-05-05T04:44:29.186Z,5.15
2019-05-05T04:47:35.571Z,5.06
2019-05-05T04:50:56.885Z,5.13
2019-05-05T04:54:15.445Z,5.03
2019-05-05T04:57:24.043Z,4.87
2019-05-05T05:00:26.646Z,4.87
2019-05-05T05:03:34.758Z,4.81
2019-05-05T05:06:49.530Z,4.83
2019-05-05T05:09:54.248Z,4.81
2019-05-05T05:12:58.981Z,4.78
2019-05-05T05:16:04.517Z,4.80
2019-05-05T05:19:09.467Z,4.84
2019-05-05T05:22:14.198Z,4.66
2019-05-05T05:25:19.478Z,4.81
2019-05-05T05:28:23.927Z,4.81
2019-05-05T05:31:28.365Z,4.89
2019-05-05T05:34:34.414Z,4.97
2019-05-05T05:37:39.288Z,5.01
2019-05-05T05:40:44.458Z,5.05
2019-05-05T05:43:50.662Z,5.09
2019-05-05T05:47:03.612Z,4.94
2019-05-05T05:50:14.312Z,4.87
2019-05-05T05:53:19.221Z,4.88
2019-05-05T05:56:24.993Z,4.86
2019-05-05T05:59:29.485Z,4.96
2019-05-05T06:02:34.236Z,4.99
2019-05-05T06:05:38.749Z,5.03
2019-05-05T06:08:44.084Z,5.06
2019-05-05T06:11:48.709Z,5.16
2019-05-05T06:14:53.748Z,5.36
2019-05-05T06:17:58.277Z,5.20
2019-05-05T06:21:04.457Z,5.25
2019-05-05T06:24:10.807Z,5.34
2019-05-05T06:27:15.563Z,5.45
2019-05-05T06:30:20.078Z,5.63
2019-05-05T06:33:24.815Z,5.59
2019-05-05T06:36:29.309Z,5.65
2019-05-05T06:39:34.208Z,5.74
2019-05-05T06:42:49.462Z,5.79
2019-05-05T06:45:58.384Z,5.67
2019-05-05T06:49:04.384Z,5.78
2019-05-05T06:52:09.277Z,5.92
2019-05-05T06:55:14.312Z,5.93
2019-05-05T06:58:18.746Z,6.26
2019-05-05T07:01:24.744Z,6.44
2019-05-05T07:04:29.385Z,6.66
2019-05-05T07:07:34.412Z,6.82
2019-05-05T07:10:38.964Z,7.08
2019-05-05T07:13:44.300Z,7.07
2019-05-05T07:16:49.277Z,7.12
2019-05-05T07:19:54.395Z,7.29
2019-05-05T07:23:02.403Z,7.25
2019-05-05T07:26:05.519Z,7.51
2019-05-05T07:29:10.247Z,7.74
2019-05-05T07:32:14.683Z,7.89
2019-05-05T07:35:34.465Z,8.09
2019-05-05T07:38:38.799Z,8.19
2019-05-05T07:41:44.704Z,8.21
2019-05-05T07:44:49.251Z,8.13
2019-05-05T07:47:54.306Z,7.77
2019-05-05T07:51:02.853Z,7.45
2019-05-05T07:54:05.453Z,7.21
2019-05-05T07:57:10.233Z,7.08
2019-05-05T08:00:14.951Z,7.09
2019-05-05T08:03:19.592Z,7.15
2019-05-05T08:06:24.025Z,7.11
2019-05-05T08:09:28.758Z,7.27
2019-05-05T08:12:34.163Z,7.47
2019-05-05T08:15:55.998Z,7.24
2019-05-05T08:18:57.139Z,7.48
2019-05-05T08:22:03.737Z,7.24
2019-05-05T08:25:33.566Z,7.33
2019-05-05T08:28:27.028Z,7.45
2019-05-05T08:31:53.586Z,7.30
2019-05-05T08:35:00.818Z,6.71
2019-05-05T08:38:04.547Z,6.44
2019-05-05T08:41:09.504Z,6.68
2019-05-05T08:44:16.254Z,6.78
2019-05-05T08:47:20.118Z,7.02
2019-05-05T08:50:27.005Z,7.26
2019-05-05T08:53:44.041Z,7.27
2019-05-05T08:56:37.461Z,7.22
2019-05-05T08:59:43.970Z,7.18
2019-05-05T09:02:48.520Z,7.68
2019-05-05T09:05:54.208Z,7.65
2019-05-05T09:08:58.802Z,7.42
2019-05-05T09:12:04.535Z,7.69
2019-05-05T09:15:09.662Z,8.10
2019-05-05T09:18:14.297Z,8.40
2019-05-05T09:21:19.196Z,8.80
2019-05-05T09:24:34.026Z,9.00
2019-05-05T09:27:39.802Z,9.07
2019-05-05T09:30:45.930Z,9.16
2019-05-05T09:33:50.609Z,8.71
2019-05-05T09:36:55.379Z,8.65
2019-05-05T09:40:00.217Z,8.64
2019-05-05T09:43:06.027Z,9.08
2019-05-05T09:46:11.271Z,9.30
2019-05-05T09:49:16.214Z,9.64
2019-05-05T09:52:20.658Z,9.93
2019-05-05T09:55:25.394Z,9.84
2019-05-05T09:58:29.829Z,9.81
2019-05-05T10:01:34.523Z,9.66
2019-05-05T10:04:39.259Z,9.60
2019-05-05T10:07:44.124Z,9.50
2019-05-05T10:10:48.687Z,9.54
2019-05-05T10:13:54.620Z,9.65
2019-05-05T10:16:59.406Z,10.13
2019-05-05T10:20:06.082Z,10.54
2019-05-05T10:23:10.806Z,10.61
2019-05-05T10:26:15.247Z,10.63
2019-05-05T10:29:20.093Z,10.64
2019-05-05T10:32:24.642Z,10.43
2019-05-05T10:35:29.322Z,10.14
2019-05-05T10:38:35.694Z,9.94
2019-05-05T10:41:40.128Z,9.59
2019-05-05T10:44:44.686Z,9.12
2019-05-05T10:47:49.791Z,8.71
2019-05-05T10:50:54.217Z,8.69
2019-05-05T10:53:58.653Z,8.57
2019-05-05T10:57:04.004Z,8.43
2019-05-05T11:00:12.703Z,8.42
2019-05-05T11:03:16.518Z,8.43
2019-05-05T11:06:21.341Z,8.41
2019-05-05T11:09:25.775Z,8.35
2019-05-05T11:12:30.210Z,8.35
2019-05-05T11:15:34.720Z,8.35
2019-05-05T11:18:39.158Z,8.54
2019-05-05T11:21:43.866Z,8.54
2019-05-05T11:24:58.228Z,8.63
2019-05-05T11:27:55.177Z,8.57
2019-05-05T11:31:00.208Z,8.74
2019-05-05T11:34:06.578Z,8.92
2019-05-05T11:37:12.646Z,9.21
2019-05-05T11:40:19.009Z,9.51
2019-05-05T11:43:24.691Z,9.76
2019-05-05T11:46:29.595Z,9.93
2019-05-05T11:49:34.034Z,9.88
2019-05-05T11:52:38.755Z,9.73
2019-05-05T11:55:44.245Z,9.33
2019-05-05T11:58:48.896Z,9.27
2019-05-05T12:01:55.013Z,9.23
2019-05-05T12:04:59.929Z,9.19
2019-05-05T12:08:04.353Z,9.26
2019-05-05T12:11:08.795Z,9.39
2019-05-05T12:14:15.142Z,9.33
2019-05-05T12:17:21.512Z,9.37
2019-05-05T12:20:37.122Z,9.43
2019-05-05T12:23:41.547Z,9.56
2019-05-05T12:26:47.892Z,9.72
2019-05-05T12:29:54.471Z,9.81
2019-05-05T12:32:58.753Z,10.03
2019-05-05T12:36:04.428Z,10.14
2019-05-05T12:39:11.063Z,10.26
2019-05-05T12:42:15.509Z,10.47
2019-05-05T12:45:23.965Z,10.87
2019-05-05T12:48:34.392Z,11.05
2019-05-05T12:51:38.526Z,11.16
2019-05-05T12:54:44.074Z,11.18
2019-05-05T12:57:48.696Z,11.17
2019-05-05T13:01:04.852Z,11.05
2019-05-05T13:04:09.355Z,10.90
2019-05-05T13:07:14.074Z,10.72
2019-05-05T13:10:21.621Z,10.85
2019-05-05T13:13:26.131Z,10.91
2019-05-05T13:16:30.825Z,11.01
2019-05-05T13:19:36.903Z,11.44
2019-05-05T13:22:49.503Z,11.64
2019-05-05T13:26:14.357Z,11.81
2019-05-05T13:29:18.320Z,12.48
2019-05-05T13:32:24.733Z,13.06
2019-05-05T13:35:29.285Z,12.90
2019-05-05T13:38:34.408Z,12.44
2019-05-05T13:41:38.960Z,12.09
2019-05-05T13:44:50.993Z,11.66
2019-05-05T13:47:55.817Z,11.33
2019-05-05T13:51:04.155Z,11.06
2019-05-05T13:54:08.360Z,10.80
2019-05-05T13:57:14.405Z,10.75
2019-05-05T14:00:19.587Z,10.60
2019-05-05T14:03:24.034Z,10.77
2019-05-05T14:06:28.568Z,11.20
2019-05-05T14:09:33.005Z,11.35
2019-05-05T14:12:37.454Z,11.59
2019-05-05T14:15:43.964Z,12.26
2019-05-05T14:18:48.752Z,13.01
2019-05-05T14:21:53.903Z,13.54
2019-05-05T14:25:00.149Z,14.03
2019-05-05T14:28:04.662Z,14.29
2019-05-05T14:31:14.213Z,14.23
2019-05-05T14:34:23.057Z,13.91
2019-05-05T14:37:27.340Z,13.50
2019-05-05T14:40:33.776Z,13.15
2019-05-05T14:43:37.946Z,12.91
2019-05-05T14:46:44.583Z,12.54
2019-05-05T14:49:49.181Z,12.55
2019-05-05T14:52:53.655Z,12.96
2019-05-05T14:55:58.319Z,13.28
2019-05-05T14:59:03.737Z,13.20
2019-05-05T15:02:08.717Z,13.14
2019-05-05T15:05:30.800Z,13.52
2019-05-05T15:08:54.854Z,13.56
2019-05-05T15:12:00.954Z,13.78
2019-05-05T15:15:07.489Z,14.06
2019-05-05T15:18:14.487Z,14.18
2019-05-05T15:21:18.764Z,13.73
2019-05-05T15:24:24.575Z,13.47
2019-05-05T15:27:29.352Z,13.44
2019-05-05T15:30:34.086Z,13.24
2019-05-05T15:33:38.532Z,12.82
2019-05-05T15:36:43.955Z,12.44
2019-05-05T15:39:48.489Z,12.01
2019-05-05T15:42:54.470Z,11.46
2019-05-05T15:45:59.379Z,11.32
2019-05-05T15:49:04.307Z,11.28
2019-05-05T15:52:08.751Z,11.14
2019-05-05T15:55:14.241Z,11.06
2019-05-05T15:58:20.743Z,11.20
2019-05-05T16:01:25.327Z,10.93
2019-05-05T16:04:29.777Z,10.95
2019-05-05T16:07:34.542Z,10.89
2019-05-05T16:10:39.270Z,10.87
2019-05-05T16:13:44.131Z,10.81
2019-05-05T16:16:56.060Z,10.71
2019-05-05T16:20:04.423Z,10.79
2019-05-05T16:23:19.318Z,10.79
2019-05-05T16:26:24.565Z,10.83
2019-05-05T16:29:29.150Z,10.77
2019-05-05T16:32:33.592Z,10.77
2019-05-05T16:35:38.311Z,10.73
2019-05-05T16:38:43.614Z,10.65
2019-05-05T16:41:48.602Z,10.59
2019-05-05T16:44:53.933Z,10.63
2019-05-05T16:47:58.456Z,10.56
2019-05-05T16:51:03.677Z,10.58
2019-05-05T16:54:09.763Z,10.64
2019-05-05T16:57:14.522Z,10.63
2019-05-05T17:00:21.541Z,10.61
2019-05-05T17:03:25.822Z,10.62
2019-05-05T17:06:30.643Z,10.63
2019-05-05T17:09:35.372Z,10.56
2019-05-05T17:12:39.831Z,10.53
2019-05-05T17:15:46.143Z,10.48
2019-05-05T17:18:50.389Z,10.38
2019-05-05T17:21:56.754Z,10.25
2019-05-05T17:25:02.400Z,10.28
2019-05-05T17:28:06.846Z,10.28
2019-05-05T17:31:11.572Z,10.27
2019-05-05T17:34:16.021Z,10.20
2019-05-05T17:37:20.722Z,10.14
2019-05-05T17:40:29.212Z,10.06
2019-05-05T17:43:47.583Z,9.94
2019-05-05T17:47:02.166Z,9.90
2019-05-05T17:50:23.786Z,9.93
2019-05-05T17:53:45.717Z,9.85
2019-05-05T17:56:52.451Z,9.78
2019-05-05T17:59:56.587Z,9.69
2019-05-05T18:03:01.025Z,9.61
2019-05-05T18:06:14.344Z,9.56
2019-05-05T18:09:20.927Z,9.51
2019-05-05T18:12:29.458Z,9.44
2019-05-05T18:15:51.634Z,9.45
2019-05-05T18:18:56.828Z,9.35
2019-05-05T18:22:01.262Z,9.25
2019-05-05T18:25:06.784Z,9.21
2019-05-05T18:28:16.943Z,9.13
2019-05-05T18:31:21.047Z,8.87
2019-05-05T18:34:25.485Z,8.84
2019-05-05T18:37:30.169Z,8.60
2019-05-05T18:40:34.605Z,8.49
2019-05-05T18:43:49.424Z,8.19
2019-05-05T18:47:14.433Z,8.26
2019-05-05T18:50:16.864Z,8.11
2019-05-05T18:53:21.311Z,7.96
2019-05-05T18:56:26.210Z,7.80
2019-05-05T18:59:30.644Z,7.71
2019-05-05T19:02:38.083Z,7.67
2019-05-05T19:05:44.208Z,7.60
2019-05-05T19:08:54.285Z,7.57
2019-05-05T19:11:56.989Z,7.49
2019-05-05T19:15:01.717Z,7.41
2019-05-05T19:18:06.788Z,7.40
2019-05-05T19:21:24.752Z,7.35
2019-05-05T19:24:29.328Z,7.36
2019-05-05T19:27:33.754Z,7.37
2019-05-05T19:30:38.272Z,7.29
2019-05-05T19:33:42.698Z,7.13
2019-05-05T19:36:47.140Z,7.22
2019-05-05T19:39:51.952Z,7.18
2019-05-05T19:42:56.382Z,7.21
2019-05-05T19:46:01.158Z,7.21
2019-05-05T19:49:15.205Z,7.17
2019-05-05T19:52:19.727Z,7.12
2019-05-05T19:55:24.524Z,7.10
2019-05-05T19:58:29.365Z,7.01
2019-05-05T20:01:37.574Z,6.96
2019-05-05T20:04:40.474Z,6.94
2019-05-05T20:07:45.185Z,6.76
2019-05-05T20:10:49.943Z,6.72
2019-05-05T20:14:06.694Z,6.66
2019-05-05T20:17:05.514Z,6.63
2019-05-05T20:20:13.708Z,6.59
2019-05-05T20:23:18.254Z,6.47
2019-05-05T20:26:23.938Z,6.45
2019-05-05T20:29:28.740Z,6.43
2019-05-05T20:32:34.835Z,6.41
2019-05-05T20:35:46.683Z,6.34
2019-05-05T20:38:54.669Z,6.25
2019-05-05T20:41:59.336Z,6.13
2019-05-05T20:45:05.194Z,6.08
2019-05-05T20:48:09.929Z,6.05
2019-05-05T20:51:14.654Z,6.07
2019-05-05T20:54:19.084Z,6.14
2019-05-05T20:57:23.774Z,6.17
2019-05-05T21:00:28.197Z,6.21
2019-05-05T21:03:34.692Z,6.20
2019-05-05T21:06:39.130Z,6.17
2019-05-05T21:09:43.865Z,6.19
2019-05-05T21:12:48.801Z,6.21
2019-05-05T21:15:53.871Z,6.20
2019-05-05T21:18:58.873Z,6.15
2019-05-05T21:22:21.220Z,6.15
2019-05-05T21:25:33.891Z,6.05
2019-05-05T21:28:38.440Z,6.06
2019-05-05T21:31:43.846Z,6.13
2019-05-05T21:34:48.746Z,6.17
2019-05-05T21:37:54.338Z,6.17
2019-05-05T21:40:59.742Z,6.15
2019-05-05T21:44:06.332Z,5.95
2019-05-05T21:47:11.045Z,5.87
2019-05-05T21:50:17.119Z,5.89
2019-05-05T21:53:24.628Z,5.89
2019-05-05T21:56:37.325Z,5.86
2019-05-05T21:59:54.391Z,5.88
2019-05-05T22:02:48.000Z,5.89
2019-05-05T22:05:53.907Z,5.83
2019-05-05T22:08:59.408Z,5.79
2019-05-05T22:12:04.259Z,5.77
2019-05-05T22:15:08.875Z,5.79
2019-05-05T22:18:14.454Z,5.89
2019-05-05T22:21:27.512Z,5.88
2019-05-05T22:24:33.396Z,5.80
2019-05-05T22:27:38.443Z,5.73
2019-05-05T22:30:43.732Z,5.72
2019-05-05T22:33:48.196Z,5.68
2019-05-05T22:36:52.944Z,5.62
2019-05-05T22:39:57.680Z,5.52
2019-05-05T22:43:03.695Z,5.45
2019-05-05T22:46:08.431Z,5.48
2019-05-05T22:49:14.694Z,5.57
2019-05-05T22:52:19.021Z,5.58
2019-05-05T22:55:24.739Z,5.48
2019-05-05T22:58:29.747Z,5.44
2019-05-05T23:01:34.481Z,5.46
2019-05-05T23:04:50.060Z,5.43
2019-05-05T23:07:54.625Z,5.40
2019-05-05T23:10:59.434Z,5.37
2019-05-05T23:14:21.263Z,5.42
2019-05-05T23:17:39.569Z,5.39
2019-05-05T23:20:56.117Z,5.43
2019-05-05T23:24:03.872Z,5.48
2019-05-05T23:27:10.280Z,5.42
2019-05-05T23:30:16.010Z,5.35
2019-05-05T23:33:20.875Z,5.37
2019-05-05T23:36:25.313Z,5.45
2019-05-05T23:39:29.759Z,5.58
2019-05-05T23:42:34.545Z,5.57
2019-05-05T23:45:38.981Z,5.41
2019-05-05T23:48:43.482Z,5.30
2019-05-05T23:51:48.230Z,5.19
2019-05-05T23:54:52.668Z,5.13
2019-05-05T23:57:57.105Z,5.07
